< < Back
Terminal Aerodrome Forecast


Current Version              Previous Versions:   1  2  3  4  5  6  7  8  9  

Terminal Aerodrome Forecast

679
FTUS42 KTAE 192300
TAFVLD
TAF
KVLD 192327Z 2000/2024 04007KT 6SM -RA BKN007
     FM200200 04007KT P6SM OVC005
     FM201400 03010KT P6SM BKN015 OVC020
     FM201700 02010KT P6SM SCT020 BKN040=



Latest METAR

654
SAUS70 KWBC 201800 RRG
MTRVLD
METAR KVLD 201753Z 01007KT 10SM OVC013 16/11 A3015 RMK AO2 SLP217
T01610111 10161 20139 56007


USA.gov is the U.S. government's official web portal to all federal, state and local government web resources and services.